Flight Track Log - Related Links

Times and Time Zones

All times are in EDT time to prevent confusion due to time zone crossing. See the N777NC flight status page for this flight to view local times or setup timezone preferences in your user account.

Time Position Orientation Groundspeed Altitude Reporting Facility
EDT Latitude Longitude Course Direction KTS MPH feet Rate Location/Type
Sun 09:58:22 AM 41.9500 -87.9167 166° South 166 191 1,800  Level Chicago TRACON
Sun 10:00:27 AM 41.8106 -87.8892 172° South 240 276 5,500 1,861 Climbing Chicago Center
Sun 10:01:00 AM 41.5642 -87.7112 168° South  Level Estimated
Sun 10:01:29 AM 41.7356 -87.8681 168° South 269 310 7,600  Level Chicago Center
Sun 10:02:00 AM 41.4634 -87.7719 204° Southwest  Level FlightAware Approximate
Sun 10:02:31 AM 41.6558 -87.8456 168° South 291 335 10,200  Level Chicago Center
Sun 10:03:00 AM 41.3594 -87.7221 166° South  Level Estimated
Sun 10:03:32 AM 41.5722 -87.8308 172° South 300 345 12,400  Level Chicago Center
Sun 10:04:34 AM 41.4750 -87.8267 178° South 344 396 13,300 1,403 Climbing Chicago Center
Sun 10:05:36 AM 41.3700 -87.8047 171° South 378 435 15,300 2,032 Climbing Chicago Center
Sun 10:06:38 AM 41.2450 -87.7614 165° South 384 442 17,500 2,081 Climbing Chicago Center
Sun 10:07:40 AM 41.1372 -87.7208 164° South 400 460 19,600 1,597 Climbing Chicago Center
Sun 10:08:42 AM 41.0278 -87.6972 171° South 399 459 20,800 968 Climbing Chicago Center
Sun 10:09:44 AM 40.9103 -87.6711 170° South 425 489 21,600 1,258 Climbing Chicago Center
Sun 10:10:46 AM 40.7889 -87.6472 172° South 441 507 23,400 1,306 Climbing Chicago Center
Sun 10:11:48 AM 40.6700 -87.6256 172° South 435 501 24,300 1,016 Climbing Chicago Center
Sun 10:12:50 AM 40.5217 -87.5900 170° South 454 522 25,500 968 Climbing Chicago Center
Sun 10:13:52 AM 40.3967 -87.5586 169° South 458 527 26,300 823 Climbing Chicago Center
Sun 10:14:54 AM 40.2689 -87.5264 169° South 467 537 27,200 774 Climbing Chicago Center
Sun 10:15:56 AM 40.1458 -87.4939 169° South 479 551 27,900 964 Climbing Chicago Center
Sun 10:16:46 AM 40.0122 -87.4600 169° South 481 554 29,000 589 Climbing Indianapolis Center
Sun 10:17:48 AM 39.8800 -87.4269 169° South 486 559 29,000 435 Level Indianapolis Center
Sun 10:18:50 AM 39.7447 -87.3906 168° South 498 573 29,900 1,016 Climbing Indianapolis Center
Sun 10:19:52 AM 39.6136 -87.3506 167° South 490 564 31,100 1,065 Climbing Indianapolis Center
Sun 10:20:54 AM 39.4831 -87.3128 167° South 486 559 32,100 968 Climbing Indianapolis Center
Sun 10:21:56 AM 39.3250 -87.2800 171° South 483 556 33,100 435 Climbing Indianapolis Center
Sun 10:22:58 AM 39.1900 -87.2514 171° South 492 566 33,000 -49 Descending Indianapolis Center
Sun 10:23:59 AM 39.0519 -87.2167 169° South 495 570 33,000  Level Indianapolis Center
Sun 10:25:01 AM 38.9183 -87.1756 167° South 492 566 33,000  Level Indianapolis Center
Sun 10:26:03 AM 38.7858 -87.1328 166° South 489 563 33,000  Level Indianapolis Center
Sun 10:27:05 AM 38.6558 -87.0878 165° South 483 556 33,000  Level Indianapolis Center
Sun 10:28:07 AM 38.5267 -87.0408 164° South 479 551 33,000  Level Indianapolis Center
Sun 10:29:09 AM 38.3825 -86.9842 163° South 483 556 33,000  Level Indianapolis Center
Sun 10:30:10 AM 38.2544 -86.9317 162° South 485 558 33,000  Level Indianapolis Center
Sun 10:31:12 AM 38.1297 -86.8756 161° South 487 560 33,000  Level Indianapolis Center
Sun 10:32:14 AM 38.0022 -86.8214 161° South 481 554 33,000  Level Indianapolis Center
Sun 10:33:16 AM 37.8747 -86.7672 161° South 480 552 33,000  Level Indianapolis Center
Sun 10:34:18 AM 37.7242 -86.7039 162° South 474 545 33,000  Level Indianapolis Center
Sun 10:35:19 AM 37.5997 -86.6481 160° South 475 547 33,000  Level Indianapolis Center
Sun 10:36:21 AM 37.4822 -86.5981 161° South 475 547 33,000  Level Indianapolis Center
Sun 10:37:23 AM 37.3550 -86.5472 162° South 474 545 33,000  Level Indianapolis Center
Sun 10:38:25 AM 37.2275 -86.5025 164° South 470 541 33,000  Level Indianapolis Center
Sun 10:39:26 AM 37.0772 -86.4672 169° South 464 534 33,000  Level Memphis Center
Sun 10:40:26 AM 36.9492 -86.4422 171° South 470 541 33,000  Level Memphis Center
Sun 10:41:26 AM 36.8339 -86.4219 172° South 470 541 33,000  Level Memphis Center
Sun 10:42:26 AM 36.7044 -86.4128 177° South 465 535 33,000  Level Memphis Center
Sun 10:43:26 AM 36.5792 -86.4061 178° South 465 535 33,000  Level Memphis Center
Sun 10:44:26 AM 36.4500 -86.4072 180° South 460 529 33,000  Level Memphis Center
Sun 10:45:26 AM 36.3125 -86.4114 181° South 460 529 33,000  Level Memphis Center
Sun 10:46:26 AM 36.1853 -86.4097 179° South 460 529 33,000  Level Memphis Center
Sun 10:47:26 AM 36.0581 -86.4056 178° South 460 529 33,000  Level Memphis Center
Sun 10:48:26 AM 35.9319 -86.3758 169° South 460 529 33,000  Level Memphis Center
Sun 10:50:18 AM 35.6978 -86.2889 163° South 462 532 33,000  Level Atlanta Center
Sun 10:51:18 AM 35.5803 -86.2144 153° Southeast 471 542 33,000  Level Atlanta Center
Sun 10:52:18 AM 35.4792 -86.1428 150° Southeast 471 542 33,000 -600 Level Atlanta Center
Sun 10:53:18 AM 35.3578 -86.0481 148° Southeast 471 542 31,800 -1,050 Descending Atlanta Center
Sun 10:54:18 AM 35.2608 -85.9719 147° Southeast 471 542 30,900 -1,050 Descending Atlanta Center
Sun 10:55:18 AM 35.1556 -85.8906 148° Southeast 461 531 29,700 -1,650 Descending Atlanta Center
Sun 10:56:18 AM 35.0483 -85.8044 147° Southeast 456 525 27,600 -2,700 Descending Atlanta Center
Sun 10:57:18 AM 34.9606 -85.6733 129° Southeast 449 517 24,300 -1,800 Descending Atlanta Center
Sun 10:58:18 AM 34.8847 -85.5531 128° Southeast 449 517 24,000 -250 Descending Atlanta Center
Sun 10:59:18 AM 34.7961 -85.4628 140° Southeast 428 493 23,800 -1,700 Descending Atlanta Center
Sun 11:00:18 AM 34.6947 -85.3853 148° Southeast 428 493 20,600 -2,950 Descending Atlanta Center
Sun 11:01:18 AM 34.5975 -85.3106 148° Southeast 423 487 17,900 -2,500 Descending Atlanta Center
Sun 11:02:18 AM 34.5000 -85.2639 158° South 401 461 15,600 -1,750 Descending Atlanta Center
Sun 11:03:18 AM 34.4003 -85.2169 159° South 389 448 14,400 -1,150 Descending Atlanta Center
Sun 11:04:18 AM 34.3003 -85.1803 163° South 381 438 13,300 -700 Descending Atlanta Center
Sun 11:05:18 AM 34.2172 -85.1442 160° South 376 433 13,000 -150 Descending Atlanta Center
Sun 11:06:18 AM 34.1278 -85.0928 155° Southeast 357 411 13,000 -300 Level Atlanta Center
Sun 11:07:18 AM 34.0828 -85.0094 123° Southeast 308 354 12,400 -1,200 Descending Atlanta Center
Sun 11:08:18 AM 34.0353 -84.9336 127° Southeast 289 333 10,600 -1,400 Descending Atlanta Center
Sun 11:09:18 AM 33.9708 -84.8803 146° Southeast 276 318 9,600 -1,050 Descending Atlanta Center
Sun 11:10:18 AM 33.9003 -84.8372 153° Southeast 281 323 8,500 -1,484 Descending Atlanta Center
Sun 11:10:51 AM 33.8500 -84.8333 176° South 281 323 7,300 -1,548 Descending Atlanta TRACON
Sun 11:11:51 AM 33.7667 -84.8333 180° South 274 315 6,100 -624 Descending Atlanta TRACON
Sun 11:12:56 AM 33.7000 -84.8500 192° South 231 266 6,000 -381 Descending Atlanta TRACON
Sun 11:13:57 AM 33.6500 -84.8167 151° Southeast 207 238 5,300 -446 Descending Atlanta TRACON
Sun 11:14:57 AM 33.6500 -84.7500 90° East 196 226 5,100 -250 Descending Atlanta TRACON
Sun 11:15:57 AM 33.6500 -84.6833 90° East 189 217 4,800 -300 Descending Atlanta TRACON

Login

Don't have an account? Register now (free) for customized features, flight alerts, and more!